Time;durP1;ratioP1;P1;durP2;ratioP2;P2;SDS_P1;SDS_P2;PMS_P1;PMS_P2;Temp;Humidity;BMP_temperature;BMP_pressure;BME280_temperature;BME280_humidity;BME280_pressure;Samples;Min_cycle;Max_cycle;Signal;HPM_P1;HPM_P2
2020/12/26 00:01:11;;;;;;;;;;;0.10;99.90;;;;;;5071007;28;19915;-83
2020/12/26 00:03:37;;;;;;;;;;;0.10;99.90;;;;;;5071342;28;19913;-83
2020/12/26 00:06:02;;;;;;;;;;;0.10;99.90;;;;;;5071016;28;20368;-83
2020/12/26 00:08:28;;;;;;;;;;;0.10;99.90;;;;;;5071202;28;19955;-83
2020/12/26 00:10:53;;;;;;;;;;;0.10;99.90;;;;;;5071174;28;19909;-83
2020/12/26 00:13:19;;;;;;;;;;;0.10;99.90;;;;;;5071342;28;19916;-84
2020/12/26 00:15:44;;;;;;;;;;;0.10;99.90;;;;;;5071141;28;19915;-84
2020/12/26 00:18:10;;;;;;;;;;;0.10;99.90;;;;;;5063153;28;19916;-83
2020/12/26 00:20:35;;;;;;;;;;;0.10;99.90;;;;;;5071813;28;19955;-83
2020/12/26 00:23:01;;;;;;;;;;;0.20;99.90;;;;;;5071143;28;20347;-83
2020/12/26 00:25:26;;;;;;;;;;;0.20;99.90;;;;;;5072275;28;19959;-83
2020/12/26 00:27:52;;;;;;;;;;;0.20;99.90;;;;;;5070920;28;19935;-83
2020/12/26 00:30:17;;;;;;;;;;;0.20;99.90;;;;;;5070876;28;19915;-83
2020/12/26 00:32:43;;;;;;;;;;;0.10;99.90;;;;;;5072225;28;19916;-83
2020/12/26 00:35:08;;;;;;;;;;;0.10;99.90;;;;;;5070921;28;20260;-83
2020/12/26 00:37:33;;;;;;;;;;;0.20;99.90;;;;;;5071380;28;20007;-84
2020/12/26 00:39:59;;;;;;;;;;;0.20;99.90;;;;;;5074887;28;19908;-83
2020/12/26 00:42:24;;;;;;;;;;;0.20;99.90;;;;;;5074851;28;20516;-83
2020/12/26 00:44:50;;;;;;;;;;;0.20;99.90;;;;;;5074767;28;19917;-83
2020/12/26 00:47:15;;;;;;;;;;;0.20;99.90;;;;;;5074249;28;19909;-83
2020/12/26 00:49:41;;;;;;;;;;;0.20;99.90;;;;;;5066641;28;20364;-83
2020/12/26 00:52:07;;;;;;;;;;;0.20;99.90;;;;;;5074637;28;19919;-83
2020/12/26 00:54:32;;;;;;;;;;;0.20;99.90;;;;;;5075848;28;20345;-83
2020/12/26 00:56:58;;;;;;;;;;;0.10;99.90;;;;;;5074485;28;19909;-83
2020/12/26 00:59:23;;;;;;;;;;;0.10;99.90;;;;;;5074454;28;20367;-83
2020/12/26 01:01:52;;;;;;;;;;;0.10;99.90;;;;;;5074378;28;19909;-83
2020/12/26 01:04:18;;;;;;;;;;;0.00;99.90;;;;;;5074465;28;20280;-83
2020/12/26 01:06:43;;;;;;;;;;;-0.10;99.90;;;;;;5074208;28;19931;-83
2020/12/26 01:09:09;;;;;;;;;;;-0.20;99.90;;;;;;5074328;28;19908;-83
2020/12/26 01:11:34;;;;;;;;;;;-0.20;99.90;;;;;;5074168;28;19908;-83
2020/12/26 01:14:00;;;;;;;;;;;-0.20;99.90;;;;;;5074269;28;19939;-83
2020/12/26 01:16:25;;;;;;;;;;;-0.30;99.90;;;;;;5073964;28;19955;-83
2020/12/26 01:18:51;;;;;;;;;;;-0.30;99.90;;;;;;5068772;28;19972;-83
2020/12/26 01:21:16;;;;;;;;;;;-0.40;99.90;;;;;;5072252;28;19909;-83
2020/12/26 01:23:42;;;;;;;;;;;-0.40;99.90;;;;;;5074170;28;20287;-83
2020/12/26 01:26:08;;;;;;;;;;;-0.40;99.90;;;;;;5073904;28;20426;-83
2020/12/26 01:28:33;;;;;;;;;;;-0.40;99.90;;;;;;5074072;28;19947;-83
2020/12/26 01:30:59;;;;;;;;;;;-0.40;99.90;;;;;;5075159;28;20383;-83
2020/12/26 01:33:24;;;;;;;;;;;-0.40;99.90;;;;;;5073787;28;19916;-84
2020/12/26 01:35:50;;;;;;;;;;;-0.40;99.90;;;;;;5075006;28;20019;-83
2020/12/26 01:38:15;;;;;;;;;;;-0.40;99.90;;;;;;5073857;28;19912;-83
2020/12/26 01:40:47;;;;;;;;;;;-0.40;99.90;;;;;;5075024;28;20516;-83
2020/12/26 01:43:12;;;;;;;;;;;-0.30;99.90;;;;;;5073823;28;19916;-83
2020/12/26 01:45:38;;;;;;;;;;;-0.40;99.90;;;;;;5073584;28;19916;-84
2020/12/26 01:48:03;;;;;;;;;;;-0.40;99.90;;;;;;5073185;28;19908;-83
2020/12/26 01:50:29;;;;;;;;;;;-0.40;99.90;;;;;;5065042;28;20422;-83
2020/12/26 01:52:54;;;;;;;;;;;-0.40;99.90;;;;;;5073505;28;19913;-83
2020/12/26 01:55:20;;;;;;;;;;;-0.40;99.90;;;;;;5074790;28;19934;-83
2020/12/26 01:57:50;;;;;;;;;;;-0.30;99.90;;;;;;5073202;28;20348;-83
2020/12/26 02:00:15;;;;;;;;;;;-0.40;99.90;;;;;;5073355;28;19908;-82
2020/12/26 02:02:41;;;;;;;;;;;-0.30;99.90;;;;;;5073354;28;20276;-83
2020/12/26 02:05:06;;;;;;;;;;;-0.30;99.90;;;;;;5074621;28;20367;-83
2020/12/26 02:07:32;;;;;;;;;;;-0.30;99.90;;;;;;5073033;28;19908;-84
2020/12/26 02:09:57;;;;;;;;;;;-0.30;99.90;;;;;;5073195;28;20003;-84
2020/12/26 02:12:23;;;;;;;;;;;-0.30;99.90;;;;;;5073204;28;19916;-83
2020/12/26 02:14:48;;;;;;;;;;;-0.30;99.90;;;;;;5073114;28;19908;-83
2020/12/26 02:17:14;;;;;;;;;;;-0.30;99.90;;;;;;5073990;28;19909;-83
2020/12/26 02:19:39;;;;;;;;;;;-0.30;99.90;;;;;;5066008;28;19909;-83
2020/12/26 02:22:05;;;;;;;;;;;-0.30;99.90;;;;;;5074243;28;19912;-83
2020/12/26 02:24:31;;;;;;;;;;;-0.30;99.90;;;;;;5073049;28;20405;-84
2020/12/26 02:26:56;;;;;;;;;;;-0.30;99.90;;;;;;5073936;28;19931;-83
2020/12/26 02:29:22;;;;;;;;;;;-0.20;99.90;;;;;;5072977;28;19916;-84
2020/12/26 02:31:47;;;;;;;;;;;-0.20;99.90;;;;;;5073882;28;19954;-83
2020/12/26 02:34:13;;;;;;;;;;;-0.20;99.90;;;;;;5072758;28;19919;-83
2020/12/26 02:36:38;;;;;;;;;;;-0.20;99.90;;;;;;5072469;28;19909;-84
2020/12/26 02:39:04;;;;;;;;;;;-0.20;99.90;;;;;;5072656;28;20489;-84
2020/12/26 02:41:30;;;;;;;;;;;-0.20;99.90;;;;;;5072339;28;19920;-83
2020/12/26 02:43:55;;;;;;;;;;;-0.20;99.90;;;;;;5072421;28;19916;-83
2020/12/26 02:46:21;;;;;;;;;;;-0.20;99.90;;;;;;5072185;28;20367;-83
2020/12/26 02:48:46;;;;;;;;;;;-0.20;99.90;;;;;;5067805;28;19909;-83
2020/12/26 02:51:12;;;;;;;;;;;-0.20;99.90;;;;;;5068667;28;20007;-83
2020/12/26 02:53:37;;;;;;;;;;;-0.20;99.90;;;;;;5072314;28;19912;-83
2020/12/26 02:56:03;;;;;;;;;;;-0.20;99.90;;;;;;5071423;28;20391;-83
2020/12/26 02:58:28;;;;;;;;;;;-0.30;99.90;;;;;;5072265;28;19912;-83
2020/12/26 03:00:54;;;;;;;;;;;-0.30;99.90;;;;;;5072637;28;19908;-84
2020/12/26 03:03:19;;;;;;;;;;;-0.30;99.90;;;;;;5072054;28;19909;-83
2020/12/26 03:05:45;;;;;;;;;;;-0.30;99.90;;;;;;5072099;28;20394;-84
2020/12/26 03:08:10;;;;;;;;;;;-0.20;99.90;;;;;;5072070;28;19967;-84
2020/12/26 03:10:36;;;;;;;;;;;-0.20;99.90;;;;;;5071883;28;19974;-83
2020/12/26 03:13:02;;;;;;;;;;;-0.10;99.90;;;;;;5073213;28;19913;-83
2020/12/26 03:15:27;;;;;;;;;;;-0.10;99.90;;;;;;5071870;28;19915;-83
2020/12/26 03:17:53;;;;;;;;;;;-0.10;99.90;;;;;;5066188;28;20007;-83
2020/12/26 03:20:18;;;;;;;;;;;0.00;99.90;;;;;;5059923;28;20505;-83
2020/12/26 03:22:43;;;;;;;;;;;0.00;99.90;;;;;;5051826;28;19909;-83
2020/12/26 03:25:09;;;;;;;;;;;0.00;99.90;;;;;;5051828;28;20282;-84
2020/12/26 03:27:34;;;;;;;;;;;0.00;99.90;;;;;;5052728;28;19909;-84
2020/12/26 03:30:00;;;;;;;;;;;0.00;99.90;;;;;;5051724;28;19909;-84
2020/12/26 03:32:25;;;;;;;;;;;0.00;99.90;;;;;;5051538;28;19964;-83
2020/12/26 03:34:51;;;;;;;;;;;0.00;99.90;;;;;;5051599;28;20287;-83
2020/12/26 03:37:16;;;;;;;;;;;0.00;99.90;;;;;;5051434;28;19909;-83
2020/12/26 03:39:42;;;;;;;;;;;0.00;99.90;;;;;;5051458;28;19916;-84
2020/12/26 03:42:08;;;;;;;;;;;0.00;99.90;;;;;;5051529;28;19916;-83
2020/12/26 03:44:34;;;;;;;;;;;0.00;99.90;;;;;;5052710;28;19916;-83
2020/12/26 03:47:00;;;;;;;;;;;0.00;99.90;;;;;;5051385;28;20382;-83
2020/12/26 03:49:26;;;;;;;;;;;0.00;99.90;;;;;;5067794;28;19954;-83
2020/12/26 03:51:52;;;;;;;;;;;0.00;99.90;;;;;;5052581;28;19919;-83
2020/12/26 03:54:18;;;;;;;;;;;0.00;99.90;;;;;;5052620;28;20000;-83
2020/12/26 03:56:43;;;;;;;;;;;0.00;99.90;;;;;;5051037;28;19913;-83
2020/12/26 03:59:09;;;;;;;;;;;0.00;99.90;;;;;;5051293;28;19978;-83
2020/12/26 04:01:35;;;;;;;;;;;-0.10;99.90;;;;;;5052605;28;19913;-83
2020/12/26 04:04:01;;;;;;;;;;;-0.10;99.90;;;;;;5052442;28;20004;-83
2020/12/26 04:06:26;;;;;;;;;;;-0.10;99.90;;;;;;5050981;28;19909;-83
2020/12/26 04:08:51;;;;;;;;;;;-0.10;99.90;;;;;;5051087;28;19909;-83
2020/12/26 04:11:17;;;;;;;;;;;-0.20;99.90;;;;;;5051034;28;19909;-83
2020/12/26 04:13:43;;;;;;;;;;;-0.30;99.90;;;;;;5052357;28;19939;-83
2020/12/26 04:16:12;;;;;;;;;;;-0.30;99.90;;;;;;5050841;28;19996;-83
2020/12/26 04:18:38;;;;;;;;;;;-0.40;99.90;;;;;;5062567;28;19915;-83
2020/12/26 04:21:03;;;;;;;;;;;-0.40;99.90;;;;;;5055732;28;20364;-83
2020/12/26 04:23:28;;;;;;;;;;;-0.40;99.90;;;;;;5050978;28;20048;-83
2020/12/26 04:25:54;;;;;;;;;;;-0.50;99.90;;;;;;5050891;28;19909;-83
2020/12/26 04:28:19;;;;;;;;;;;-0.60;99.90;;;;;;5052257;28;20394;-84
2020/12/26 04:30:45;;;;;;;;;;;-0.60;99.90;;;;;;5052451;28;19909;-83
2020/12/26 04:33:10;;;;;;;;;;;-0.60;99.90;;;;;;5050948;28;19913;-83
2020/12/26 04:35:36;;;;;;;;;;;-0.70;99.90;;;;;;5050826;28;20067;-83
2020/12/26 04:38:01;;;;;;;;;;;-0.70;99.90;;;;;;5051992;28;20035;-83
2020/12/26 04:40:27;;;;;;;;;;;-0.70;99.90;;;;;;5052014;28;19935;-83
2020/12/26 04:42:52;;;;;;;;;;;-0.70;99.90;;;;;;5050838;28;20382;-84
2020/12/26 04:45:18;;;;;;;;;;;-0.70;99.90;;;;;;5050804;28;19917;-83
2020/12/26 04:47:48;;;;;;;;;;;-0.70;99.90;;;;;;5054625;28;19920;-85
2020/12/26 04:50:13;;;;;;;;;;;-0.60;99.90;;;;;;5062434;28;19916;-83
2020/12/26 04:52:45;;;;;;;;;;;-0.60;99.90;;;;;;5050677;28;20264;-83
2020/12/26 04:55:10;;;;;;;;;;;-0.60;99.90;;;;;;5050847;28;19909;-83
2020/12/26 04:57:36;;;;;;;;;;;-0.60;99.90;;;;;;5050469;28;19908;-83
2020/12/26 05:00:05;;;;;;;;;;;-0.50;99.90;;;;;;5050591;28;19912;-83
2020/12/26 05:02:35;;;;;;;;;;;-0.50;99.90;;;;;;5050771;28;19909;-83
2020/12/26 05:05:01;;;;;;;;;;;-0.50;99.90;;;;;;5050606;28;19923;-83
2020/12/26 05:07:27;;;;;;;;;;;-0.40;99.90;;;;;;5050486;28;19916;-83
2020/12/26 05:09:52;;;;;;;;;;;-0.40;99.90;;;;;;5050551;28;20286;-83
2020/12/26 05:12:17;;;;;;;;;;;-0.50;99.90;;;;;;5050434;28;20011;-83
2020/12/26 05:14:43;;;;;;;;;;;-0.40;99.90;;;;;;5050487;28;19913;-84
2020/12/26 05:17:08;;;;;;;;;;;-0.40;99.90;;;;;;5051699;28;20360;-84
2020/12/26 05:19:34;;;;;;;;;;;-0.40;99.90;;;;;;5062124;28;19909;-83
2020/12/26 05:21:59;;;;;;;;;;;-0.40;99.90;;;;;;5071650;28;19915;-83
2020/12/26 05:24:25;;;;;;;;;;;-0.40;99.90;;;;;;5072383;28;19944;-83
2020/12/26 05:26:51;;;;;;;;;;;-0.40;99.90;;;;;;5073775;28;19909;-83
2020/12/26 05:29:18;;;;;;;;;;;-0.40;99.90;;;;;;5075230;28;19991;-83
2020/12/26 05:31:53;;;;;;;;;;;-0.40;99.90;;;;;;5073793;28;20256;-83
2020/12/26 05:34:19;;;;;;;;;;;-0.40;99.90;;;;;;5075189;28;19915;-83
2020/12/26 05:36:44;;;;;;;;;;;-0.40;99.90;;;;;;5073706;28;19908;-83
2020/12/26 05:39:10;;;;;;;;;;;-0.40;99.90;;;;;;5073759;28;19995;-83
2020/12/26 05:41:40;;;;;;;;;;;-0.40;99.90;;;;;;5073648;28;20003;-83
2020/12/26 05:44:06;;;;;;;;;;;-0.50;99.90;;;;;;5073465;28;19924;-84
2020/12/26 05:46:32;;;;;;;;;;;-0.50;99.90;;;;;;5073584;28;19954;-84
2020/12/26 05:48:57;;;;;;;;;;;-0.50;99.90;;;;;;5065131;28;19909;-84
2020/12/26 05:51:25;;;;;;;;;;;-0.50;99.90;;;;;;5055066;28;20475;-83
2020/12/26 05:53:54;;;;;;;;;;;-0.60;99.90;;;;;;5053474;28;19919;-83
2020/12/26 05:56:19;;;;;;;;;;;-0.60;99.90;;;;;;5053262;28;19909;-83
2020/12/26 05:58:45;;;;;;;;;;;-0.60;99.90;;;;;;5053455;28;20417;-83
2020/12/26 06:01:10;;;;;;;;;;;-0.60;99.90;;;;;;5054506;28;20008;-83
2020/12/26 06:03:36;;;;;;;;;;;-0.60;99.90;;;;;;5053389;28;19967;-84
2020/12/26 06:06:03;;;;;;;;;;;-0.70;99.90;;;;;;5053146;28;19909;-83
2020/12/26 06:08:29;;;;;;;;;;;-0.70;99.90;;;;;;5053315;28;19983;-84
2020/12/26 06:10:55;;;;;;;;;;;-0.80;99.90;;;;;;5053122;28;20395;-83
2020/12/26 06:13:22;;;;;;;;;;;-0.90;99.90;;;;;;5053095;28;19913;-83
2020/12/26 06:15:48;;;;;;;;;;;-0.90;99.90;;;;;;5054205;28;19978;-84
2020/12/26 06:18:15;;;;;;;;;;;-0.90;99.90;;;;;;5061455;28;19909;-83
2020/12/26 06:20:42;;;;;;;;;;;-0.90;99.90;;;;;;5061023;28;19909;-84
2020/12/26 06:23:08;;;;;;;;;;;-0.90;99.90;;;;;;5054372;28;19996;-83
2020/12/26 06:25:35;;;;;;;;;;;-1.00;99.90;;;;;;5052792;28;19917;-83
2020/12/26 06:28:01;;;;;;;;;;;-1.00;99.90;;;;;;5052931;28;19909;-83
2020/12/26 06:30:27;;;;;;;;;;;-1.10;99.90;;;;;;5052782;28;19916;-84
2020/12/26 06:32:54;;;;;;;;;;;-1.20;99.90;;;;;;5054054;28;19916;-83
2020/12/26 06:35:20;;;;;;;;;;;-1.20;99.90;;;;;;5052995;28;20386;-83
2020/12/26 06:38:08;;;;;;;;;;;-1.20;99.90;;;;;;5052622;28;19909;-83
2020/12/26 06:40:34;;;;;;;;;;;-1.20;99.90;;;;;;5052562;28;19913;-83
2020/12/26 06:42:59;;;;;;;;;;;-1.20;99.90;;;;;;5052582;28;20462;-84
2020/12/26 06:45:32;;;;;;;;;;;-1.10;99.90;;;;;;5052567;28;19921;-84
2020/12/26 06:47:57;;;;;;;;;;;-1.10;99.90;;;;;;5059336;28;19916;-84
2020/12/26 06:50:24;;;;;;;;;;;-1.10;99.90;;;;;;5063986;28;19912;-83
2020/12/26 06:52:50;;;;;;;;;;;-1.10;99.90;;;;;;5073716;28;20363;-83
2020/12/26 06:55:34;;;;;;;;;;;-1.20;99.90;;;;;;5072299;28;19908;-84
2020/12/26 06:57:59;;;;;;;;;;;-1.20;99.90;;;;;;5072206;28;19909;-83
2020/12/26 07:00:25;;;;;;;;;;;-1.20;99.90;;;;;;5072300;28;19966;-83
2020/12/26 07:03:10;;;;;;;;;;;-1.20;99.90;;;;;;5072215;28;19908;-84
2020/12/26 07:05:37;;;;;;;;;;;-1.30;99.90;;;;;;5071877;28;19961;-84
2020/12/26 07:08:02;;;;;;;;;;;-1.40;99.90;;;;;;5072045;28;19909;-83
2020/12/26 07:10:34;;;;;;;;;;;-1.40;99.90;;;;;;5072116;28;19915;-83
2020/12/26 07:13:00;;;;;;;;;;;-1.40;99.90;;;;;;5071934;28;20038;-83
2020/12/26 07:15:32;;;;;;;;;;;-1.30;99.90;;;;;;5072040;28;19999;-83
2020/12/26 07:18:17;;;;;;;;;;;-1.30;99.90;;;;;;5065604;28;19909;-83
2020/12/26 07:20:49;;;;;;;;;;;-1.30;99.90;;;;;;5073160;28;19909;-83
2020/12/26 07:23:15;;;;;;;;;;;-1.30;99.90;;;;;;5072084;28;19931;-83
2020/12/26 07:25:41;;;;;;;;;;;-1.30;99.90;;;;;;5071654;28;20356;-84
2020/12/26 07:28:06;;;;;;;;;;;-1.20;99.90;;;;;;5071636;28;19909;-83
2020/12/26 07:30:35;;;;;;;;;;;-1.20;99.90;;;;;;5072952;28;19909;-83
2020/12/26 07:33:01;;;;;;;;;;;-1.20;99.90;;;;;;5072872;28;19970;-83
2020/12/26 07:35:28;;;;;;;;;;;-1.20;99.90;;;;;;5071711;28;19908;-83
2020/12/26 07:37:55;;;;;;;;;;;-1.20;99.90;;;;;;5071479;28;19960;-83
2020/12/26 07:40:22;;;;;;;;;;;-1.10;99.90;;;;;;5071472;28;19909;-83
2020/12/26 07:42:48;;;;;;;;;;;-1.10;99.90;;;;;;5072882;28;20353;-84
2020/12/26 07:45:14;;;;;;;;;;;-1.10;99.90;;;;;;5071434;28;19920;-83
2020/12/26 07:47:40;;;;;;;;;;;-1.10;99.90;;;;;;5071041;28;19931;-83
2020/12/26 07:50:06;;;;;;;;;;;-1.00;99.90;;;;;;5063320;28;20319;-83
2020/12/26 07:52:31;;;;;;;;;;;-1.00;99.90;;;;;;5071413;28;19947;-83
2020/12/26 07:54:58;;;;;;;;;;;-1.00;99.90;;;;;;5071373;28;20390;-83
2020/12/26 07:57:24;;;;;;;;;;;-0.90;99.90;;;;;;5071277;28;19962;-83
2020/12/26 07:59:49;;;;;;;;;;;-0.90;99.90;;;;;;5071376;28;19908;-83
2020/12/26 08:02:15;;;;;;;;;;;-0.90;99.90;;;;;;5071416;28;20046;-83
2020/12/26 08:04:44;;;;;;;;;;;-0.90;99.90;;;;;;5071321;28;19909;-84
2020/12/26 08:07:13;;;;;;;;;;;-0.80;99.90;;;;;;5071097;28;19908;-83
2020/12/26 08:09:39;;;;;;;;;;;-0.80;99.90;;;;;;5072507;28;19908;-83
2020/12/26 08:12:05;;;;;;;;;;;-0.70;99.90;;;;;;5072391;28;20003;-84
2020/12/26 08:14:30;;;;;;;;;;;-0.60;99.90;;;;;;5071223;28;19909;-83
2020/12/26 08:16:56;;;;;;;;;;;-0.50;99.90;;;;;;5071045;28;19909;-83
2020/12/26 08:19:22;;;;;;;;;;;-0.50;99.90;;;;;;5062655;28;19909;-83
2020/12/26 08:21:56;;;;;;;;;;;-0.40;99.90;;;;;;5071073;28;20256;-84
2020/12/26 08:24:21;;;;;;;;;;;-0.30;99.90;;;;;;5071225;28;20042;-83
2020/12/26 08:26:47;;;;;;;;;;;-0.20;99.90;;;;;;5071056;28;19914;-84
2020/12/26 08:29:12;;;;;;;;;;;-0.10;99.90;;;;;;5071036;28;19915;-83
2020/12/26 08:31:39;;;;;;;;;;;0.00;99.90;;;;;;5071211;28;19912;-83
2020/12/26 08:34:25;;;;;;;;;;;0.10;99.90;;;;;;5070959;28;20027;-83
2020/12/26 08:36:55;;;;;;;;;;;0.10;99.90;;;;;;5070933;28;19908;-84
2020/12/26 08:39:22;;;;;;;;;;;0.20;99.90;;;;;;5070512;28;19958;-83
2020/12/26 08:41:48;;;;;;;;;;;0.40;99.90;;;;;;5070958;28;19908;-84
2020/12/26 08:44:14;;;;;;;;;;;0.50;99.90;;;;;;5070879;28;19923;-84
2020/12/26 08:46:43;;;;;;;;;;;0.70;99.90;;;;;;5062836;28;19909;-84
2020/12/26 08:49:09;;;;;;;;;;;0.90;99.90;;;;;;5059108;28;19999;-84
2020/12/26 08:51:39;;;;;;;;;;;1.00;99.90;;;;;;5070260;28;20370;-84
2020/12/26 08:54:05;;;;;;;;;;;1.20;99.90;;;;;;5071304;28;20005;-83
2020/12/26 08:56:34;;;;;;;;;;;1.40;99.90;;;;;;5070730;28;19970;-85
2020/12/26 08:59:00;;;;;;;;;;;1.70;99.90;;;;;;5072275;28;20252;-84
2020/12/26 09:01:26;;;;;;;;;;;2.20;99.90;;;;;;5074542;28;19920;-85
2020/12/26 09:03:51;;;;;;;;;;;2.60;99.90;;;;;;5074653;28;19916;-85
2020/12/26 09:06:28;;;;;;;;;;;2.90;99.90;;;;;;5074318;28;20098;-85
2020/12/26 09:08:54;;;;;;;;;;;3.20;99.90;;;;;;5075733;28;19985;-86
2020/12/26 09:11:19;;;;;;;;;;;3.60;99.90;;;;;;5074481;28;20378;-86
2020/12/26 09:13:47;;;;;;;;;;;3.90;99.90;;;;;;5075722;28;20375;-87
2020/12/26 09:16:13;;;;;;;;;;;4.10;99.90;;;;;;5074358;28;20390;-86
2020/12/26 09:18:42;;;;;;;;;;;4.20;99.90;;;;;;5065962;28;19908;-86
2020/12/26 09:21:08;;;;;;;;;;;4.40;99.90;;;;;;5058272;28;19916;-87
2020/12/26 09:23:38;;;;;;;;;;;4.50;99.90;;;;;;5054289;28;19909;-86
2020/12/26 09:26:08;;;;;;;;;;;4.50;99.90;;;;;;5054008;28;19912;-87
2020/12/26 09:28:40;;;;;;;;;;;4.40;99.90;;;;;;5054217;28;19913;-86
2020/12/26 09:31:09;;;;;;;;;;;4.20;99.90;;;;;;5054153;28;19909;-86
2020/12/26 09:33:35;;;;;;;;;;;4.20;99.90;;;;;;5054217;28;20360;-86
2020/12/26 09:36:01;;;;;;;;;;;4.30;99.90;;;;;;5053952;28;19909;-87
2020/12/26 09:38:27;;;;;;;;;;;4.50;99.90;;;;;;5054016;28;19909;-86
2020/12/26 09:40:53;;;;;;;;;;;4.70;99.90;;;;;;5055159;28;20373;-87
2020/12/26 09:43:18;;;;;;;;;;;4.90;99.90;;;;;;5055324;28;19909;-86
2020/12/26 09:45:43;;;;;;;;;;;4.90;99.90;;;;;;5053768;28;20015;-87
2020/12/26 09:48:09;;;;;;;;;;;4.80;99.90;;;;;;5062818;28;19916;-87
2020/12/26 09:50:34;;;;;;;;;;;4.60;99.90;;;;;;5065451;28;20003;-88
2020/12/26 09:53:00;;;;;;;;;;;4.50;99.90;;;;;;5073679;28;20286;-89
2020/12/26 09:55:25;;;;;;;;;;;4.40;99.90;;;;;;5074917;28;19923;-87
2020/12/26 09:57:51;;;;;;;;;;;4.40;99.90;;;;;;5073724;28;19909;-87
2020/12/26 10:00:16;;;;;;;;;;;4.40;99.90;;;;;;5075258;28;19940;-87
2020/12/26 10:02:42;;;;;;;;;;;4.50;99.90;;;;;;5073741;28;19908;-88
2020/12/26 10:05:07;;;;;;;;;;;4.50;99.90;;;;;;5073622;28;19908;-87
2020/12/26 10:07:33;;;;;;;;;;;4.70;99.90;;;;;;5073261;28;20302;-88
2020/12/26 10:09:58;;;;;;;;;;;4.80;99.90;;;;;;5074444;28;20002;-88
2020/12/26 10:12:24;;;;;;;;;;;5.00;99.90;;;;;;5073384;28;20440;-88
2020/12/26 10:14:50;;;;;;;;;;;5.20;99.90;;;;;;5073337;28;19915;-87
2020/12/26 10:17:15;;;;;;;;;;;5.40;99.90;;;;;;5072862;28;19909;-87
2020/12/26 10:19:40;;;;;;;;;;;5.30;99.90;;;;;;5061277;28;20275;-86
2020/12/26 10:22:06;;;;;;;;;;;5.40;99.90;;;;;;5053477;28;19916;-88
2020/12/26 10:24:31;;;;;;;;;;;5.40;99.90;;;;;;5053321;28;19970;-88
2020/12/26 10:26:57;;;;;;;;;;;5.30;99.90;;;;;;5054298;28;19909;-87
2020/12/26 10:29:22;;;;;;;;;;;5.30;99.90;;;;;;5054402;28;19916;-87
2020/12/26 10:31:48;;;;;;;;;;;5.40;99.90;;;;;;5053062;28;19908;-87
2020/12/26 10:34:13;;;;;;;;;;;5.40;99.90;;;;;;5052924;28;19974;-87
2020/12/26 10:36:42;;;;;;;;;;;5.40;99.90;;;;;;5052806;28;20015;-87
2020/12/26 10:39:08;;;;;;;;;;;5.40;99.90;;;;;;5053313;28;19916;-87
2020/12/26 10:41:33;;;;;;;;;;;5.30;99.90;;;;;;5052916;28;20368;-88
2020/12/26 10:43:59;;;;;;;;;;;5.30;99.90;;;;;;5052796;28;19971;-87
2020/12/26 10:46:24;;;;;;;;;;;5.20;99.90;;;;;;5052740;28;19908;-87
2020/12/26 10:48:50;;;;;;;;;;;4.90;99.90;;;;;;5062082;28;20007;-87
2020/12/26 10:51:15;;;;;;;;;;;4.80;99.90;;;;;;5069352;28;20325;-86
2020/12/26 10:53:41;;;;;;;;;;;4.60;99.90;;;;;;5072547;28;20015;-87
2020/12/26 10:56:06;;;;;;;;;;;4.40;99.90;;;;;;5072238;28;19966;-87
2020/12/26 10:58:32;;;;;;;;;;;4.20;99.90;;;;;;5072337;28;19909;-87
2020/12/26 11:00:57;;;;;;;;;;;4.20;99.90;;;;;;5072438;28;19909;-88
2020/12/26 11:03:23;;;;;;;;;;;4.30;99.90;;;;;;5072284;28;19982;-87
2020/12/26 11:05:49;;;;;;;;;;;4.30;99.90;;;;;;5072272;28;19908;-88
2020/12/26 11:08:16;;;;;;;;;;;4.30;99.90;;;;;;5072506;28;19959;-88
2020/12/26 11:10:41;;;;;;;;;;;4.30;99.90;;;;;;5072306;28;19908;-88
2020/12/26 11:13:06;;;;;;;;;;;4.40;99.90;;;;;;5072031;28;19919;-88
2020/12/26 11:15:32;;;;;;;;;;;4.40;99.90;;;;;;5072097;28;19999;-87
2020/12/26 11:17:57;;;;;;;;;;;4.40;99.90;;;;;;5065804;28;19908;-87
2020/12/26 11:20:23;;;;;;;;;;;4.40;99.90;;;;;;5070991;28;19913;-87
2020/12/26 11:22:48;;;;;;;;;;;4.20;99.90;;;;;;5071569;28;19909;-87
2020/12/26 11:25:14;;;;;;;;;;;4.00;99.90;;;;;;5073340;28;20276;-88
2020/12/26 11:27:39;;;;;;;;;;;3.90;99.90;;;;;;5071949;28;19913;-88
2020/12/26 11:30:05;;;;;;;;;;;3.90;99.90;;;;;;5072006;28;20373;-88
2020/12/26 11:32:30;;;;;;;;;;;3.80;99.90;;;;;;5073072;28;19920;-86
2020/12/26 11:34:56;;;;;;;;;;;3.90;99.90;;;;;;5071845;28;19908;-88
2020/12/26 11:37:21;;;;;;;;;;;4.00;99.90;;;;;;5071617;28;19908;-88
2020/12/26 11:39:47;;;;;;;;;;;4.00;99.90;;;;;;5071703;28;19908;-86
2020/12/26 11:42:13;;;;;;;;;;;4.00;99.90;;;;;;5071646;28;19912;-86
2020/12/26 11:44:40;;;;;;;;;;;4.10;99.90;;;;;;5071609;28;19916;-87
2020/12/26 11:47:06;;;;;;;;;;;4.00;99.90;;;;;;5071564;28;20350;-87
2020/12/26 11:49:31;;;;;;;;;;;4.00;99.90;;;;;;5060591;28;19955;-88
2020/12/26 11:51:57;;;;;;;;;;;3.90;99.90;;;;;;5051592;28;19920;-86
2020/12/26 11:54:22;;;;;;;;;;;3.90;99.90;;;;;;5051802;28;20007;-88
2020/12/26 11:56:49;;;;;;;;;;;3.90;99.90;;;;;;5051444;28;20283;-88
2020/12/26 11:59:15;;;;;;;;;;;3.90;99.90;;;;;;5051489;28;19909;-88
2020/12/26 12:01:40;;;;;;;;;;;3.90;99.90;;;;;;5051443;28;19928;-89
2020/12/26 12:04:06;;;;;;;;;;;3.90;99.90;;;;;;5051929;28;19915;-88
2020/12/26 12:06:31;;;;;;;;;;;3.80;99.90;;;;;;5051478;28;19963;-88
2020/12/26 12:08:58;;;;;;;;;;;3.70;99.90;;;;;;5051784;28;19909;-88
2020/12/26 12:11:23;;;;;;;;;;;3.70;99.90;;;;;;5051479;28;19912;-88
2020/12/26 12:13:49;;;;;;;;;;;3.80;99.90;;;;;;5052713;28;19921;-88
2020/12/26 12:16:14;;;;;;;;;;;3.70;99.90;;;;;;5051598;28;19909;-88
2020/12/26 12:18:40;;;;;;;;;;;3.70;99.90;;;;;;5060873;28;19908;-87
2020/12/26 12:21:05;;;;;;;;;;;3.70;99.90;;;;;;5068035;28;20375;-88
2020/12/26 12:23:31;;;;;;;;;;;3.70;99.90;;;;;;5071596;28;20298;-87
2020/12/26 12:25:56;;;;;;;;;;;3.70;99.90;;;;;;5071370;28;19909;-88
2020/12/26 12:28:22;;;;;;;;;;;3.70;99.90;;;;;;5071356;28;19915;-87
2020/12/26 12:30:47;;;;;;;;;;;3.80;99.90;;;;;;5071305;28;19909;-88
2020/12/26 12:33:13;;;;;;;;;;;3.80;99.90;;;;;;5071322;28;19926;-87
2020/12/26 12:35:38;;;;;;;;;;;3.90;99.90;;;;;;5075152;28;19908;-88
2020/12/26 12:38:04;;;;;;;;;;;3.90;99.90;;;;;;5075319;28;20014;-87
2020/12/26 12:40:29;;;;;;;;;;;4.00;99.90;;;;;;5075173;28;19955;-86
2020/12/26 12:42:55;;;;;;;;;;;3.90;99.90;;;;;;5075162;28;20268;-86
2020/12/26 12:45:20;;;;;;;;;;;3.90;99.90;;;;;;5076343;28;19966;-87
2020/12/26 12:47:46;;;;;;;;;;;3.80;99.90;;;;;;5070201;28;19909;-87
2020/12/26 12:50:11;;;;;;;;;;;3.80;99.90;;;;;;5062894;28;19909;-87
2020/12/26 12:52:38;;;;;;;;;;;3.70;99.90;;;;;;5074878;28;19919;-87
2020/12/26 12:55:03;;;;;;;;;;;3.70;99.90;;;;;;5076190;28;20392;-89
2020/12/26 12:57:29;;;;;;;;;;;3.60;99.90;;;;;;5074722;28;20040;-87
2020/12/26 12:59:54;;;;;;;;;;;3.60;99.90;;;;;;5074815;28;19931;-88
2020/12/26 13:02:20;;;;;;;;;;;3.60;99.90;;;;;;5075100;28;19908;-88
2020/12/26 13:04:45;;;;;;;;;;;3.60;99.90;;;;;;5074751;28;20355;-87
2020/12/26 13:07:11;;;;;;;;;;;3.60;99.90;;;;;;5074487;28;19909;-88
2020/12/26 13:09:36;;;;;;;;;;;3.60;99.90;;;;;;5074717;28;19915;-88
2020/12/26 13:12:02;;;;;;;;;;;3.70;99.90;;;;;;5074546;28;19944;-87
2020/12/26 13:14:27;;;;;;;;;;;3.80;99.90;;;;;;5074517;28;19908;-87
2020/12/26 13:16:53;;;;;;;;;;;3.80;99.90;;;;;;5074165;28;19908;-87
2020/12/26 13:19:19;;;;;;;;;;;3.80;99.90;;;;;;5065200;28;19909;-86
2020/12/26 13:21:46;;;;;;;;;;;3.70;99.90;;;;;;5054395;28;19955;-88
2020/12/26 13:24:12;;;;;;;;;;;3.70;99.90;;;;;;5054402;28;19960;-88
2020/12/26 13:26:37;;;;;;;;;;;3.70;99.90;;;;;;5055392;28;19915;-87
2020/12/26 13:29:03;;;;;;;;;;;3.60;99.90;;;;;;5054422;28;19928;-86
2020/12/26 13:31:29;;;;;;;;;;;3.50;99.90;;;;;;5055429;28;19923;-88
2020/12/26 13:33:55;;;;;;;;;;;3.50;99.90;;;;;;5054146;28;20003;-87
2020/12/26 13:36:21;;;;;;;;;;;3.50;99.90;;;;;;5053986;28;19913;-88
2020/12/26 13:38:47;;;;;;;;;;;3.50;99.90;;;;;;5054188;28;20051;-87
2020/12/26 13:41:12;;;;;;;;;;;3.50;99.90;;;;;;5053956;28;19962;-88
2020/12/26 13:43:38;;;;;;;;;;;3.50;99.90;;;;;;5053940;28;20385;-87
2020/12/26 13:46:04;;;;;;;;;;;3.40;99.90;;;;;;5053388;28;20349;-87
2020/12/26 13:48:29;;;;;;;;;;;3.30;99.90;;;;;;5062054;28;19920;-86
2020/12/26 13:50:55;;;;;;;;;;;3.30;99.90;;;;;;5067661;28;19909;-87
2020/12/26 13:53:20;;;;;;;;;;;3.30;99.90;;;;;;5073708;28;19955;-88
2020/12/26 13:55:46;;;;;;;;;;;3.30;99.90;;;;;;5073528;28;19912;-88
2020/12/26 13:58:11;;;;;;;;;;;3.30;99.90;;;;;;5073793;28;19913;-85
2020/12/26 14:00:37;;;;;;;;;;;3.30;99.90;;;;;;5073592;28;20454;-87
2020/12/26 14:03:03;;;;;;;;;;;3.30;99.90;;;;;;5073682;28;20279;-87
2020/12/26 14:05:28;;;;;;;;;;;3.30;99.90;;;;;;5068917;28;19913;-85
2020/12/26 14:07:54;;;;;;;;;;;3.30;99.90;;;;;;5073332;28;19912;-85
2020/12/26 14:10:19;;;;;;;;;;;3.30;99.90;;;;;;5073038;28;19920;-86
2020/12/26 14:12:45;;;;;;;;;;;3.30;99.90;;;;;;5089511;28;19920;-86
2020/12/26 14:15:10;;;;;;;;;;;3.30;99.90;;;;;;5088779;28;19908;-86
2020/12/26 14:17:36;;;;;;;;;;;3.30;99.90;;;;;;5087794;28;19909;-86